createdAt,value
2022-08-31T00:03:39.260Z,17.17
2022-08-31T00:08:43.384Z,17.70
2022-08-31T00:13:49.054Z,17.72
2022-08-31T00:18:53.693Z,17.00
2022-08-31T00:23:57.708Z,16.35
2022-08-31T00:29:03.235Z,16.49
2022-08-31T00:34:07.600Z,16.17
2022-08-31T00:39:11.630Z,15.58
2022-08-31T00:44:17.879Z,15.63
2022-08-31T00:49:24.630Z,15.38
2022-08-31T00:54:35.794Z,15.67
2022-08-31T00:59:45.698Z,16.23
2022-08-31T01:04:49.526Z,16.57
2022-08-31T01:09:56.168Z,16.33
2022-08-31T01:15:06.394Z,16.30
2022-08-31T01:20:17.562Z,16.46
2022-08-31T01:25:23.034Z,15.98
2022-08-31T01:30:27.850Z,15.60
2022-08-31T01:35:32.126Z,15.60
2022-08-31T01:40:45.938Z,15.57
2022-08-31T01:45:50.180Z,15.49
2022-08-31T01:50:54.118Z,13.92
2022-08-31T01:55:59.428Z,14.09
2022-08-31T02:01:03.992Z,14.49
2022-08-31T02:06:28.083Z,15.05
2022-08-31T02:11:33.537Z,15.48
2022-08-31T02:16:37.899Z,15.04
2022-08-31T02:21:43.080Z,15.18
2022-08-31T02:26:51.757Z,15.12
2022-08-31T02:31:58.655Z,14.95
2022-08-31T02:37:02.514Z,14.57
2022-08-31T02:42:08.293Z,13.96
2022-08-31T02:47:12.372Z,14.12
2022-08-31T02:52:20.781Z,14.09
2022-08-31T02:57:26.066Z,14.11
2022-08-31T03:02:32.161Z,14.34
2022-08-31T03:07:36.923Z,14.88
2022-08-31T03:12:42.386Z,14.77
2022-08-31T03:17:46.356Z,14.96
2022-08-31T03:22:50.783Z,15.44
2022-08-31T03:27:58.114Z,15.55
2022-08-31T03:33:03.409Z,15.68
2022-08-31T03:38:09.308Z,16.23
2022-08-31T03:43:16.067Z,16.10
2022-08-31T03:48:20.531Z,16.35
2022-08-31T03:53:24.713Z,16.37
2022-08-31T03:58:33.063Z,16.61
2022-08-31T04:03:37.708Z,15.65
2022-08-31T04:09:13.936Z,15.67
2022-08-31T04:14:39.291Z,15.58
2022-08-31T04:20:02.283Z,15.35
2022-08-31T04:25:26.528Z,15.94
2022-08-31T04:30:31.859Z,15.74
2022-08-31T04:35:36.591Z,15.53
2022-08-31T04:40:41.482Z,15.33
2022-08-31T04:45:47.461Z,14.87
2022-08-31T04:50:51.766Z,15.34
2022-08-31T04:55:55.737Z,15.78
2022-08-31T05:01:01.086Z,15.94
2022-08-31T05:06:25.408Z,16.66
2022-08-31T05:11:31.654Z,16.85
2022-08-31T05:16:38.653Z,17.62
2022-08-31T05:21:44.262Z,17.73
2022-08-31T05:26:50.374Z,18.14
2022-08-31T05:31:56.881Z,18.18
2022-08-31T05:37:00.821Z,18.33
2022-08-31T05:42:07.854Z,18.54
2022-08-31T05:47:13.370Z,17.44
2022-08-31T05:52:17.399Z,16.71
2022-08-31T05:57:25.860Z,15.95
2022-08-31T06:02:34.106Z,15.69
2022-08-31T06:07:38.425Z,16.51
2022-08-31T06:12:47.468Z,16.74
2022-08-31T06:17:55.672Z,17.63
2022-08-31T06:23:02.184Z,17.42
2022-08-31T06:28:19.242Z,18.59
2022-08-31T06:33:27.267Z,17.04
2022-08-31T06:38:49.898Z,16.45
2022-08-31T06:44:21.421Z,16.57
2022-08-31T06:49:53.358Z,17.19
2022-08-31T06:55:00.509Z,17.09
2022-08-31T07:00:24.482Z,18.69
2022-08-31T07:06:12.237Z,18.81
2022-08-31T07:11:24.182Z,17.57
2022-08-31T07:16:29.257Z,18.08
2022-08-31T07:21:48.341Z,17.63
2022-08-31T07:26:58.879Z,19.04
2022-08-31T07:32:17.601Z,18.02
2022-08-31T07:37:47.088Z,18.64
2022-08-31T07:42:51.475Z,18.51
2022-08-31T07:47:56.464Z,18.72
2022-08-31T07:53:08.681Z,17.88
2022-08-31T07:58:30.265Z,16.15
2022-08-31T08:03:35.367Z,15.97
2022-08-31T08:09:21.982Z,15.42
2022-08-31T08:14:54.908Z,16.01
2022-08-31T08:20:34.435Z,15.83
2022-08-31T08:25:46.331Z,16.71
2022-08-31T08:31:01.671Z,17.70
2022-08-31T08:36:11.028Z,18.35
2022-08-31T08:41:21.182Z,18.14
2022-08-31T08:46:35.653Z,19.16
2022-08-31T08:51:40.889Z,18.86
2022-08-31T08:56:49.360Z,18.77
2022-08-31T09:02:02.477Z,19.70
2022-08-31T09:07:26.214Z,20.69
2022-08-31T09:12:44.927Z,20.20
2022-08-31T09:18:02.275Z,18.89
2022-08-31T09:23:08.625Z,18.86
2022-08-31T09:28:19.648Z,18.71
2022-08-31T09:33:28.491Z,19.83
2022-08-31T09:38:39.602Z,20.17
2022-08-31T09:43:46.138Z,21.11
2022-08-31T09:48:53.282Z,20.96
2022-08-31T09:54:27.210Z,21.40
2022-08-31T09:59:38.424Z,22.01
2022-08-31T10:04:52.429Z,22.27
2022-08-31T10:10:00.718Z,21.52
2022-08-31T10:15:15.805Z,20.73
2022-08-31T10:20:35.227Z,20.87
2022-08-31T10:25:46.805Z,23.01
2022-08-31T10:30:59.797Z,23.42
2022-08-31T10:36:08.128Z,23.03
2022-08-31T10:41:22.654Z,22.58
2022-08-31T10:46:29.302Z,23.94
2022-08-31T10:51:54.000Z,24.21
2022-08-31T10:57:33.490Z,24.73
2022-08-31T11:02:57.226Z,23.07
2022-08-31T11:08:12.346Z,22.84
2022-08-31T11:13:53.982Z,22.84
2022-08-31T11:19:39.282Z,21.18
2022-08-31T11:25:15.476Z,21.77
2022-08-31T11:30:27.055Z,22.32
2022-08-31T11:36:06.097Z,23.43
2022-08-31T11:41:12.180Z,25.45
2022-08-31T11:47:07.260Z,24.26
2022-08-31T11:52:32.842Z,23.11
2022-08-31T11:58:11.690Z,23.30
2022-08-31T12:03:37.097Z,25.94
2022-08-31T12:08:52.425Z,23.16
2022-08-31T12:14:02.300Z,22.90
2022-08-31T12:19:51.177Z,23.28
2022-08-31T12:25:11.674Z,26.59
2022-08-31T12:30:21.200Z,25.12
2022-08-31T12:35:26.186Z,24.01
2022-08-31T12:40:33.197Z,24.35
2022-08-31T12:46:18.938Z,24.61
2022-08-31T12:51:31.134Z,23.92
2022-08-31T12:56:44.498Z,25.24
2022-08-31T13:01:51.300Z,24.49
2022-08-31T13:06:55.335Z,23.58
2022-08-31T13:12:02.315Z,23.29
2022-08-31T13:17:12.205Z,25.34
2022-08-31T13:22:25.673Z,26.40
2022-08-31T13:27:31.128Z,28.03
2022-08-31T13:32:35.915Z,26.64
2022-08-31T13:37:42.001Z,27.64
2022-08-31T13:42:57.189Z,28.69
2022-08-31T13:48:03.113Z,27.03
2022-08-31T13:53:26.389Z,25.34
2022-08-31T13:58:33.475Z,24.22
2022-08-31T14:03:45.218Z,23.28
2022-08-31T14:08:52.288Z,23.46
2022-08-31T14:14:06.084Z,24.26
2022-08-31T14:19:11.238Z,24.72
2022-08-31T14:24:14.757Z,24.48
2022-08-31T14:29:19.909Z,23.06
2022-08-31T14:34:27.079Z,22.97
2022-08-31T14:39:33.634Z,22.45
2022-08-31T14:44:41.965Z,21.31
2022-08-31T14:49:46.139Z,21.61
2022-08-31T14:54:49.872Z,22.00
2022-08-31T14:59:58.195Z,21.75
2022-08-31T15:05:04.766Z,21.73
2022-08-31T15:10:12.983Z,21.38
2022-08-31T15:15:20.898Z,22.71
2022-08-31T15:20:25.016Z,22.75
2022-08-31T15:25:28.918Z,22.98
2022-08-31T15:30:34.022Z,23.50
2022-08-31T15:35:41.883Z,23.10
2022-08-31T15:40:45.636Z,22.92
2022-08-31T15:45:50.757Z,22.53
2022-08-31T15:51:00.467Z,21.62
2022-08-31T15:56:06.751Z,21.75
2022-08-31T16:01:16.376Z,21.89
2022-08-31T16:06:22.744Z,21.53
2022-08-31T16:11:28.790Z,21.10
2022-08-31T16:16:36.900Z,21.62
2022-08-31T16:21:45.267Z,21.71
2022-08-31T16:26:51.370Z,21.38
2022-08-31T16:31:57.594Z,21.19
2022-08-31T16:37:07.383Z,21.29
2022-08-31T16:42:13.558Z,20.99
2022-08-31T16:47:19.673Z,20.68
2022-08-31T16:52:26.475Z,20.59
2022-08-31T16:57:32.698Z,20.90
2022-08-31T17:02:37.907Z,20.33
2022-08-31T17:07:42.860Z,20.66
2022-08-31T17:12:48.375Z,20.49
2022-08-31T17:17:53.289Z,19.82
2022-08-31T17:22:56.977Z,19.89
2022-08-31T17:28:05.538Z,20.12
2022-08-31T17:33:14.222Z,20.34
2022-08-31T17:38:18.591Z,20.03
2022-08-31T17:43:22.598Z,19.77
2022-08-31T17:48:30.442Z,19.67
2022-08-31T17:53:34.394Z,19.61
2022-08-31T17:58:38.306Z,19.27
2022-08-31T18:03:43.449Z,19.44
2022-08-31T18:08:47.247Z,19.38
2022-08-31T18:13:53.593Z,18.82
2022-08-31T18:18:58.915Z,19.15
2022-08-31T18:24:02.930Z,18.94
2022-08-31T18:29:08.754Z,18.87
2022-08-31T18:34:18.931Z,18.66
2022-08-31T18:39:48.066Z,18.51
2022-08-31T18:45:09.312Z,18.62
2022-08-31T18:50:16.150Z,18.25
2022-08-31T18:55:20.261Z,18.39
2022-08-31T19:00:24.194Z,17.93
2022-08-31T19:05:31.635Z,18.17
2022-08-31T19:10:35.933Z,17.86
2022-08-31T19:15:40.644Z,17.78
2022-08-31T19:20:45.945Z,17.55
2022-08-31T19:25:49.853Z,17.32
2022-08-31T19:30:53.587Z,16.87
2022-08-31T19:36:03.484Z,16.39
2022-08-31T19:41:15.916Z,16.55
2022-08-31T19:46:24.221Z,15.97
2022-08-31T19:51:31.434Z,15.90
2022-08-31T19:56:37.576Z,16.30
2022-08-31T20:01:42.054Z,16.41
2022-08-31T20:06:49.256Z,16.58
2022-08-31T20:12:00.019Z,15.84
2022-08-31T20:17:05.263Z,16.67
2022-08-31T20:22:10.619Z,15.97
2022-08-31T20:27:18.339Z,15.72
2022-08-31T20:32:23.619Z,15.60
2022-08-31T20:37:28.803Z,15.28
2022-08-31T20:42:32.509Z,15.57
2022-08-31T20:47:53.334Z,15.45
2022-08-31T20:52:59.253Z,15.52
2022-08-31T20:58:03.281Z,14.97
2022-08-31T21:03:07.248Z,15.11
2022-08-31T21:08:13.991Z,15.88
2022-08-31T21:13:18.363Z,16.00
2022-08-31T21:18:23.290Z,15.91
2022-08-31T21:23:29.431Z,15.84
2022-08-31T21:28:34.106Z,15.72
2022-08-31T21:33:37.913Z,15.40
2022-08-31T21:38:44.651Z,15.85
2022-08-31T21:43:48.904Z,15.46
2022-08-31T21:48:54.253Z,15.04
2022-08-31T21:54:01.478Z,14.58
2022-08-31T21:59:06.284Z,14.67
2022-08-31T22:04:10.989Z,15.04
2022-08-31T22:09:17.738Z,14.91
2022-08-31T22:14:26.257Z,14.34
2022-08-31T22:19:33.981Z,14.28
2022-08-31T22:24:39.565Z,15.30
2022-08-31T22:29:44.225Z,15.83
2022-08-31T22:34:48.182Z,15.79
2022-08-31T22:39:55.345Z,15.92
2022-08-31T22:44:58.984Z,16.09
2022-08-31T22:50:02.680Z,16.30
2022-08-31T22:55:10.246Z,15.23
2022-08-31T23:00:14.628Z,14.61
2022-08-31T23:05:20.687Z,13.84
2022-08-31T23:10:27.072Z,14.28
2022-08-31T23:15:31.301Z,14.52
2022-08-31T23:20:35.075Z,14.67
2022-08-31T23:25:41.009Z,14.60
2022-08-31T23:30:44.964Z,14.42
2022-08-31T23:35:48.868Z,15.17
2022-08-31T23:41:10.705Z,15.56
2022-08-31T23:46:19.229Z,15.35
2022-08-31T23:51:23.353Z,15.79
2022-08-31T23:56:32.263Z,15.60
